sensor_id;sensor_type;location;lat;lon;timestamp;pressure;altitude;pressure_sealevel;temperature;humidity
75617;BME280;64200;55.426;37.758;2023-07-13T00:04:21;98420.19;;;13.38;67.51
75617;BME280;64200;55.426;37.758;2023-07-13T00:09:23;98421.19;;;13.29;67.41
75617;BME280;64200;55.426;37.758;2023-07-13T00:14:26;98428.38;;;13.13;68.02
75617;BME280;64200;55.426;37.758;2023-07-13T00:19:27;98429.38;;;13.21;67.83
75617;BME280;64200;55.426;37.758;2023-07-13T00:24:28;98429.88;;;13.25;67.74
75617;BME280;64200;55.426;37.758;2023-07-13T00:29:29;98420.94;;;13.38;66.85
75617;BME280;64200;55.426;37.758;2023-07-13T00:34:30;98416.84;;;13.33;66.81
75617;BME280;64200;55.426;37.758;2023-07-13T00:39:31;98425.47;;;13.52;66.34
75617;BME280;64200;55.426;37.758;2023-07-13T00:44:31;98418.56;;;13.59;66.06
75617;BME280;64200;55.426;37.758;2023-07-13T00:49:34;98425.66;;;13.66;66.08
75617;BME280;64200;55.426;37.758;2023-07-13T00:54:41;98416.50;;;13.65;65.76
75617;BME280;64200;55.426;37.758;2023-07-13T00:59:49;98420.81;;;13.66;65.59
75617;BME280;64200;55.426;37.758;2023-07-13T01:04:51;98416.78;;;13.56;65.68
75617;BME280;64200;55.426;37.758;2023-07-13T01:09:52;98427.94;;;13.67;65.68
75617;BME280;64200;55.426;37.758;2023-07-13T01:14:59;98420.84;;;13.61;65.60
75617;BME280;64200;55.426;37.758;2023-07-13T01:20:00;98426.72;;;13.57;65.62
75617;BME280;64200;55.426;37.758;2023-07-13T01:25:02;98418.56;;;13.59;65.83
75617;BME280;64200;55.426;37.758;2023-07-13T01:30:03;98419.09;;;13.58;65.84
75617;BME280;64200;55.426;37.758;2023-07-13T01:35:04;98414.44;;;13.66;65.63
75617;BME280;64200;55.426;37.758;2023-07-13T01:40:05;98402.72;;;13.67;65.51
75617;BME280;64200;55.426;37.758;2023-07-13T01:45:06;98398.91;;;13.65;65.35
75617;BME280;64200;55.426;37.758;2023-07-13T01:50:07;98411.41;;;13.64;65.62
75617;BME280;64200;55.426;37.758;2023-07-13T01:55:08;98405.00;;;13.69;65.68
75617;BME280;64200;55.426;37.758;2023-07-13T02:00:10;98406.53;;;13.70;65.53
75617;BME280;64200;55.426;37.758;2023-07-13T02:05:11;98404.25;;;13.68;65.78
75617;BME280;64200;55.426;37.758;2023-07-13T02:10:12;98398.13;;;13.70;65.69
75617;BME280;64200;55.426;37.758;2023-07-13T02:15:13;98391.50;;;13.67;65.85
75617;BME280;64200;55.426;37.758;2023-07-13T02:20:13;98383.63;;;13.60;66.02
75617;BME280;64200;55.426;37.758;2023-07-13T02:25:14;98399.34;;;13.75;65.91
75617;BME280;64200;55.426;37.758;2023-07-13T02:30:14;98391.66;;;13.81;65.95
75617;BME280;64200;55.426;37.758;2023-07-13T02:35:15;98390.88;;;13.86;65.92
75617;BME280;64200;55.426;37.758;2023-07-13T02:40:15;98400.03;;;13.86;65.94
75617;BME280;64200;55.426;37.758;2023-07-13T02:45:16;98395.47;;;13.83;65.94
75617;BME280;64200;55.426;37.758;2023-07-13T02:50:16;98391.41;;;13.84;66.23
75617;BME280;64200;55.426;37.758;2023-07-13T02:55:17;98387.25;;;13.97;66.00
75617;BME280;64200;55.426;37.758;2023-07-13T03:00:17;98383.59;;;14.08;65.72
75617;BME280;64200;55.426;37.758;2023-07-13T03:05:18;98381.81;;;14.04;65.80
75617;BME280;64200;55.426;37.758;2023-07-13T03:10:19;98387.59;;;14.18;65.46
75617;BME280;64200;55.426;37.758;2023-07-13T03:15:19;98376.31;;;14.23;65.49
75617;BME280;64200;55.426;37.758;2023-07-13T03:20:20;98374.44;;;14.37;65.22
75617;BME280;64200;55.426;37.758;2023-07-13T03:25:21;98388.38;;;14.43;65.18
75617;BME280;64200;55.426;37.758;2023-07-13T03:30:21;98378.75;;;14.38;64.86
75617;BME280;64200;55.426;37.758;2023-07-13T03:35:22;98397.31;;;14.41;64.84
75617;BME280;64200;55.426;37.758;2023-07-13T03:40:22;98386.22;;;14.30;65.42
75617;BME280;64200;55.426;37.758;2023-07-13T03:45:23;98389.44;;;14.40;64.93
75617;BME280;64200;55.426;37.758;2023-07-13T03:50:24;98394.72;;;14.49;65.10
75617;BME280;64200;55.426;37.758;2023-07-13T03:55:25;98395.44;;;14.55;64.64
75617;BME280;64200;55.426;37.758;2023-07-13T04:00:26;98385.50;;;14.54;64.94
75617;BME280;64200;55.426;37.758;2023-07-13T04:05:28;98394.25;;;14.45;65.15
75617;BME280;64200;55.426;37.758;2023-07-13T04:10:30;98389.13;;;14.49;65.08
75617;BME280;64200;55.426;37.758;2023-07-13T04:15:31;98382.78;;;14.43;65.26
75617;BME280;64200;55.426;37.758;2023-07-13T04:20:32;98391.06;;;14.60;65.40
75617;BME280;64200;55.426;37.758;2023-07-13T04:25:33;98381.50;;;14.74;64.83
75617;BME280;64200;55.426;37.758;2023-07-13T04:30:33;98389.53;;;15.08;64.48
75617;BME280;64200;55.426;37.758;2023-07-13T04:35:34;98379.72;;;15.40;63.99
75617;BME280;64200;55.426;37.758;2023-07-13T04:40:35;98378.41;;;15.60;63.21
75617;BME280;64200;55.426;37.758;2023-07-13T04:45:35;98387.44;;;15.53;62.69
75617;BME280;64200;55.426;37.758;2023-07-13T04:50:37;98398.16;;;15.16;63.09
75617;BME280;64200;55.426;37.758;2023-07-13T04:55:38;98386.88;;;14.97;64.20
75617;BME280;64200;55.426;37.758;2023-07-13T05:00:39;98395.47;;;15.05;64.20
75617;BME280;64200;55.426;37.758;2023-07-13T05:05:39;98405.50;;;15.19;64.07
75617;BME280;64200;55.426;37.758;2023-07-13T05:10:40;98399.06;;;15.24;64.01
75617;BME280;64200;55.426;37.758;2023-07-13T05:15:40;98396.84;;;15.17;64.15
75617;BME280;64200;55.426;37.758;2023-07-13T05:20:41;98403.72;;;15.60;64.16
75617;BME280;64200;55.426;37.758;2023-07-13T05:25:41;98399.84;;;16.01;62.96
75617;BME280;64200;55.426;37.758;2023-07-13T05:30:46;98393.72;;;16.16;62.33
75617;BME280;64200;55.426;37.758;2023-07-13T05:35:47;98408.78;;;16.19;62.24
75617;BME280;64200;55.426;37.758;2023-07-13T05:40:48;98409.06;;;16.47;61.87
75617;BME280;64200;55.426;37.758;2023-07-13T05:45:48;98405.09;;;16.69;61.20
75617;BME280;64200;55.426;37.758;2023-07-13T05:50:51;98401.81;;;16.52;60.86
75617;BME280;64200;55.426;37.758;2023-07-13T05:55:54;98407.94;;;16.83;60.78
75617;BME280;64200;55.426;37.758;2023-07-13T06:01:06;98398.31;;;17.05;59.64
75617;BME280;64200;55.426;37.758;2023-07-13T06:06:09;98391.28;;;17.12;59.09
75617;BME280;64200;55.426;37.758;2023-07-13T06:11:14;98382.69;;;17.44;59.08
75617;BME280;64200;55.426;37.758;2023-07-13T06:16:16;98391.28;;;17.73;57.89
75617;BME280;64200;55.426;37.758;2023-07-13T06:21:19;98384.34;;;18.08;56.66
75617;BME280;64200;55.426;37.758;2023-07-13T06:26:20;98382.63;;;18.05;55.93
75617;BME280;64200;55.426;37.758;2023-07-13T06:31:21;98379.09;;;18.55;56.45
75617;BME280;64200;55.426;37.758;2023-07-13T06:36:21;98374.47;;;18.65;53.72
75617;BME280;64200;55.426;37.758;2023-07-13T06:41:22;98384.28;;;18.93;54.36
75617;BME280;64200;55.426;37.758;2023-07-13T06:46:23;98371.53;;;19.00;53.68
75617;BME280;64200;55.426;37.758;2023-07-13T06:51:23;98376.69;;;19.17;53.14
75617;BME280;64200;55.426;37.758;2023-07-13T06:56:24;98380.63;;;19.50;53.43
75617;BME280;64200;55.426;37.758;2023-07-13T07:01:24;98382.69;;;19.49;51.39
75617;BME280;64200;55.426;37.758;2023-07-13T07:06:25;98374.41;;;19.52;50.55
75617;BME280;64200;55.426;37.758;2023-07-13T07:11:26;98378.41;;;19.64;50.76
75617;BME280;64200;55.426;37.758;2023-07-13T07:16:26;98374.59;;;20.13;50.25
75617;BME280;64200;55.426;37.758;2023-07-13T07:21:27;98378.56;;;20.18;49.35
75617;BME280;64200;55.426;37.758;2023-07-13T07:26:27;98379.75;;;19.71;48.36
75617;BME280;64200;55.426;37.758;2023-07-13T07:31:28;98381.50;;;19.37;49.23
75617;BME280;64200;55.426;37.758;2023-07-13T07:36:29;98389.25;;;19.44;49.54
75617;BME280;64200;55.426;37.758;2023-07-13T07:41:29;98389.28;;;19.52;49.43
75617;BME280;64200;55.426;37.758;2023-07-13T07:46:30;98388.59;;;19.23;49.79
75617;BME280;64200;55.426;37.758;2023-07-13T07:51:30;98399.41;;;19.32;50.40
75617;BME280;64200;55.426;37.758;2023-07-13T07:56:32;98408.03;;;19.71;49.50
75617;BME280;64200;55.426;37.758;2023-07-13T08:01:32;98395.91;;;20.22;49.25
75617;BME280;64200;55.426;37.758;2023-07-13T08:06:33;98409.75;;;20.87;47.38
75617;BME280;64200;55.426;37.758;2023-07-13T08:11:34;98399.13;;;20.57;46.57
75617;BME280;64200;55.426;37.758;2023-07-13T08:16:35;98405.56;;;20.42;46.25
75617;BME280;64200;55.426;37.758;2023-07-13T08:21:36;98409.09;;;20.12;47.21
75617;BME280;64200;55.426;37.758;2023-07-13T08:26:37;98411.63;;;19.71;47.73
75617;BME280;64200;55.426;37.758;2023-07-13T08:31:37;98407.78;;;19.53;48.19
75617;BME280;64200;55.426;37.758;2023-07-13T08:36:38;98429.13;;;19.25;48.89
75617;BME280;64200;55.426;37.758;2023-07-13T08:41:39;98421.50;;;19.12;50.09
75617;BME280;64200;55.426;37.758;2023-07-13T08:46:40;98406.63;;;19.12;51.10
75617;BME280;64200;55.426;37.758;2023-07-13T08:56:48;98417.59;;;18.87;52.51
75617;BME280;64200;55.426;37.758;2023-07-13T09:07:41;98420.34;;;18.79;53.84
75617;BME280;64200;55.426;37.758;2023-07-13T09:18:28;98410.44;;;19.15;54.34
75617;BME280;64200;55.426;37.758;2023-07-13T09:23:31;98403.88;;;18.91;54.48
75617;BME280;64200;55.426;37.758;2023-07-13T09:28:39;98402.00;;;19.66;53.02
75617;BME280;64200;55.426;37.758;2023-07-13T09:33:42;98393.78;;;19.99;51.32
75617;BME280;64200;55.426;37.758;2023-07-13T09:38:43;98403.69;;;19.70;50.75
75617;BME280;64200;55.426;37.758;2023-07-13T09:44:13;98417.56;;;19.89;50.46
75617;BME280;64200;55.426;37.758;2023-07-13T09:49:14;98416.16;;;19.74;48.49
75617;BME280;64200;55.426;37.758;2023-07-13T09:54:18;98406.41;;;19.39;48.67
75617;BME280;64200;55.426;37.758;2023-07-13T09:59:21;98416.59;;;19.05;49.85
75617;BME280;64200;55.426;37.758;2023-07-13T10:04:33;98413.81;;;19.13;50.22
75617;BME280;64200;55.426;37.758;2023-07-13T10:09:34;98402.84;;;19.09;50.61
75617;BME280;64200;55.426;37.758;2023-07-13T10:14:35;98423.44;;;18.89;51.17
75617;BME280;64200;55.426;37.758;2023-07-13T10:19:36;98414.56;;;19.13;51.20
75617;BME280;64200;55.426;37.758;2023-07-13T10:24:37;98414.09;;;19.30;51.00
75617;BME280;64200;55.426;37.758;2023-07-13T10:29:47;98413.91;;;19.36;50.81
75617;BME280;64200;55.426;37.758;2023-07-13T10:34:48;98422.94;;;19.35;51.03
75617;BME280;64200;55.426;37.758;2023-07-13T10:39:52;98432.66;;;19.47;51.34
75617;BME280;64200;55.426;37.758;2023-07-13T10:44:54;98430.25;;;19.59;51.11
75617;BME280;64200;55.426;37.758;2023-07-13T10:49:57;98438.81;;;19.38;51.29
75617;BME280;64200;55.426;37.758;2023-07-13T10:54:58;98437.66;;;19.33;51.01
75617;BME280;64200;55.426;37.758;2023-07-13T11:05:30;98444.75;;;19.19;51.02
75617;BME280;64200;55.426;37.758;2023-07-13T11:10:51;98447.31;;;19.09;51.38
75617;BME280;64200;55.426;37.758;2023-07-13T11:15:52;98446.44;;;18.93;52.27
75617;BME280;64200;55.426;37.758;2023-07-13T11:21:13;98460.56;;;18.93;53.00
75617;BME280;64200;55.426;37.758;2023-07-13T11:26:43;98456.09;;;18.76;53.65
75617;BME280;64200;55.426;37.758;2023-07-13T11:31:55;98463.03;;;18.75;54.23
75617;BME280;64200;55.426;37.758;2023-07-13T11:36:57;98462.88;;;18.52;55.49
75617;BME280;64200;55.426;37.758;2023-07-13T11:42:02;98459.47;;;18.33;56.39
75617;BME280;64200;55.426;37.758;2023-07-13T11:47:14;98455.13;;;18.11;57.33
75617;BME280;64200;55.426;37.758;2023-07-13T11:52:19;98462.09;;;17.83;58.01
75617;BME280;64200;55.426;37.758;2023-07-13T12:02:38;98451.69;;;17.91;58.43
75617;BME280;64200;55.426;37.758;2023-07-13T12:07:39;98453.22;;;17.92;58.27
75617;BME280;64200;55.426;37.758;2023-07-13T12:12:47;98459.94;;;17.76;58.36
75617;BME280;64200;55.426;37.758;2023-07-13T12:17:48;98460.81;;;17.70;59.15
75617;BME280;64200;55.426;37.758;2023-07-13T12:22:50;98475.59;;;17.63;59.46
75617;BME280;64200;55.426;37.758;2023-07-13T12:27:51;98452.50;;;17.51;59.91
75617;BME280;64200;55.426;37.758;2023-07-13T12:33:11;98444.84;;;17.12;60.09
75617;BME280;64200;55.426;37.758;2023-07-13T12:38:13;98435.72;;;17.19;58.95
75617;BME280;64200;55.426;37.758;2023-07-13T12:43:14;98438.09;;;17.42;58.88
75617;BME280;64200;55.426;37.758;2023-07-13T12:48:16;98427.44;;;17.48;59.11
75617;BME280;64200;55.426;37.758;2023-07-13T12:53:23;98435.47;;;17.44;58.90
75617;BME280;64200;55.426;37.758;2023-07-13T12:58:26;98433.84;;;17.48;58.39
75617;BME280;64200;55.426;37.758;2023-07-13T13:08:35;98426.03;;;17.68;57.89
75617;BME280;64200;55.426;37.758;2023-07-13T13:13:35;98439.69;;;17.64;58.24
75617;BME280;64200;55.426;37.758;2023-07-13T13:18:36;98447.19;;;17.48;58.33
75617;BME280;64200;55.426;37.758;2023-07-13T13:23:37;98447.41;;;17.23;58.45
75617;BME280;64200;55.426;37.758;2023-07-13T13:28:38;98442.56;;;17.10;59.06
75617;BME280;64200;55.426;37.758;2023-07-13T13:33:40;98431.78;;;16.82;59.66
75617;BME280;64200;55.426;37.758;2023-07-13T13:38:43;98448.44;;;16.80;60.21
75617;BME280;64200;55.426;37.758;2023-07-13T13:43:44;98443.56;;;16.67;60.74
75617;BME280;64200;55.426;37.758;2023-07-13T13:48:48;98449.00;;;16.46;61.69
75617;BME280;64200;55.426;37.758;2023-07-13T13:53:49;98443.97;;;16.25;62.75
75617;BME280;64200;55.426;37.758;2023-07-13T13:58:50;98437.44;;;16.17;63.39
75617;BME280;64200;55.426;37.758;2023-07-13T14:03:51;98450.31;;;16.12;64.23
75617;BME280;64200;55.426;37.758;2023-07-13T14:08:54;98435.19;;;15.96;64.73
75617;BME280;64200;55.426;37.758;2023-07-13T14:13:59;98421.72;;;15.70;65.97
75617;BME280;64200;55.426;37.758;2023-07-13T14:19:00;98421.13;;;15.77;66.09
75617;BME280;64200;55.426;37.758;2023-07-13T14:24:01;98427.69;;;15.86;66.28
75617;BME280;64200;55.426;37.758;2023-07-13T14:29:04;98418.53;;;15.79;66.94
75617;BME280;64200;55.426;37.758;2023-07-13T14:34:05;98398.63;;;15.58;67.39
75617;BME280;64200;55.426;37.758;2023-07-13T14:44:21;98407.72;;;15.64;68.02
75617;BME280;64200;55.426;37.758;2023-07-13T14:54:34;98397.41;;;15.54;68.64
75617;BME280;64200;55.426;37.758;2023-07-13T14:59:34;98388.09;;;15.45;68.36
75617;BME280;64200;55.426;37.758;2023-07-13T15:04:35;98392.38;;;15.46;68.86
75617;BME280;64200;55.426;37.758;2023-07-13T15:09:36;98395.34;;;15.54;68.16
75617;BME280;64200;55.426;37.758;2023-07-13T15:14:37;98398.00;;;15.66;67.65
75617;BME280;64200;55.426;37.758;2023-07-13T15:19:37;98403.19;;;15.61;67.56
75617;BME280;64200;55.426;37.758;2023-07-13T15:24:38;98389.81;;;15.68;68.00
75617;BME280;64200;55.426;37.758;2023-07-13T15:29:38;98391.97;;;15.80;67.56
75617;BME280;64200;55.426;37.758;2023-07-13T15:34:43;98402.13;;;15.84;67.52
75617;BME280;64200;55.426;37.758;2023-07-13T15:39:43;98395.53;;;15.81;67.71
75617;BME280;64200;55.426;37.758;2023-07-13T15:44:44;98417.94;;;15.87;67.55
75617;BME280;64200;55.426;37.758;2023-07-13T15:49:44;98413.53;;;15.91;67.68
75617;BME280;64200;55.426;37.758;2023-07-13T15:54:46;98398.91;;;15.93;67.89
75617;BME280;64200;55.426;37.758;2023-07-13T15:59:47;98403.25;;;15.94;67.88
75617;BME280;64200;55.426;37.758;2023-07-13T16:04:48;98399.84;;;15.82;68.10
75617;BME280;64200;55.426;37.758;2023-07-13T16:09:48;98384.34;;;15.56;69.13
75617;BME280;64200;55.426;37.758;2023-07-13T16:14:50;98369.97;;;15.41;69.15
75617;BME280;64200;55.426;37.758;2023-07-13T16:19:50;98393.78;;;15.40;69.37
75617;BME280;64200;55.426;37.758;2023-07-13T16:24:51;98383.41;;;15.10;71.63
75617;BME280;64200;55.426;37.758;2023-07-13T16:29:56;98397.69;;;15.12;71.67
75617;BME280;64200;55.426;37.758;2023-07-13T16:34:58;98408.59;;;15.16;71.62
75617;BME280;64200;55.426;37.758;2023-07-13T16:40:00;98405.09;;;15.09;71.60
75617;BME280;64200;55.426;37.758;2023-07-13T16:45:00;98396.34;;;14.94;72.23
75617;BME280;64200;55.426;37.758;2023-07-13T16:50:01;98396.47;;;14.83;73.08
75617;BME280;64200;55.426;37.758;2023-07-13T16:55:04;98374.59;;;14.75;73.27
75617;BME280;64200;55.426;37.758;2023-07-13T17:05:19;98377.28;;;14.87;72.85
75617;BME280;64200;55.426;37.758;2023-07-13T17:10:21;98376.97;;;14.90;73.03
75617;BME280;64200;55.426;37.758;2023-07-13T17:15:24;98372.72;;;14.84;73.04
75617;BME280;64200;55.426;37.758;2023-07-13T17:20:30;98381.66;;;14.82;73.38
75617;BME280;64200;55.426;37.758;2023-07-13T17:25:31;98394.75;;;14.74;73.60
75617;BME280;64200;55.426;37.758;2023-07-13T17:30:31;98377.22;;;14.92;73.17
75617;BME280;64200;55.426;37.758;2023-07-13T17:35:34;98377.59;;;15.02;72.79
75617;BME280;64200;55.426;37.758;2023-07-13T17:40:35;98377.75;;;14.91;72.84
75617;BME280;64200;55.426;37.758;2023-07-13T17:45:36;98379.78;;;14.90;73.11
75617;BME280;64200;55.426;37.758;2023-07-13T17:50:36;98385.81;;;14.75;73.74
75617;BME280;64200;55.426;37.758;2023-07-13T17:55:37;98390.25;;;14.65;74.05
75617;BME280;64200;55.426;37.758;2023-07-13T18:00:38;98372.03;;;14.78;73.78
75617;BME280;64200;55.426;37.758;2023-07-13T18:05:41;98367.81;;;14.90;73.45
75617;BME280;64200;55.426;37.758;2023-07-13T18:10:42;98371.19;;;15.07;73.13
75617;BME280;64200;55.426;37.758;2023-07-13T18:15:43;98370.28;;;15.18;72.64
75617;BME280;64200;55.426;37.758;2023-07-13T18:20:44;98370.41;;;15.07;72.37
75617;BME280;64200;55.426;37.758;2023-07-13T18:25:49;98364.97;;;15.15;72.31
75617;BME280;64200;55.426;37.758;2023-07-13T18:30:57;98368.06;;;15.11;72.27
75617;BME280;64200;55.426;37.758;2023-07-13T18:36:00;98380.97;;;15.20;72.11
75617;BME280;64200;55.426;37.758;2023-07-13T18:41:01;98378.06;;;15.06;72.43
75617;BME280;64200;55.426;37.758;2023-07-13T18:46:26;98371.59;;;14.92;72.84
75617;BME280;64200;55.426;37.758;2023-07-13T18:51:33;98381.91;;;14.84;72.98
75617;BME280;64200;55.426;37.758;2023-07-13T18:56:33;98365.56;;;14.83;73.20
75617;BME280;64200;55.426;37.758;2023-07-13T19:01:36;98381.25;;;14.97;73.10
75617;BME280;64200;55.426;37.758;2023-07-13T19:06:37;98375.94;;;15.13;72.84
75617;BME280;64200;55.426;37.758;2023-07-13T19:11:37;98379.16;;;15.22;72.64
75617;BME280;64200;55.426;37.758;2023-07-13T19:16:38;98379.84;;;15.28;72.24
75617;BME280;64200;55.426;37.758;2023-07-13T19:21:38;98377.03;;;15.28;72.18
75617;BME280;64200;55.426;37.758;2023-07-13T19:26:39;98382.34;;;15.32;72.11
75617;BME280;64200;55.426;37.758;2023-07-13T19:31:40;98384.72;;;15.28;72.20
75617;BME280;64200;55.426;37.758;2023-07-13T19:36:40;98375.06;;;15.23;72.36
75617;BME280;64200;55.426;37.758;2023-07-13T19:41:41;98384.78;;;15.22;72.55
75617;BME280;64200;55.426;37.758;2023-07-13T19:46:42;98371.88;;;15.14;72.51
75617;BME280;64200;55.426;37.758;2023-07-13T19:51:43;98392.38;;;15.27;72.71
75617;BME280;64200;55.426;37.758;2023-07-13T19:56:46;98396.41;;;15.32;72.78
75617;BME280;64200;55.426;37.758;2023-07-13T20:01:47;98396.41;;;15.32;72.64
75617;BME280;64200;55.426;37.758;2023-07-13T20:06:47;98404.75;;;15.38;72.77
75617;BME280;64200;55.426;37.758;2023-07-13T20:11:48;98403.09;;;15.48;72.49
75617;BME280;64200;55.426;37.758;2023-07-13T20:16:54;98403.41;;;15.44;72.59
75617;BME280;64200;55.426;37.758;2023-07-13T20:21:56;98399.13;;;15.38;72.70
75617;BME280;64200;55.426;37.758;2023-07-13T20:26:57;98405.00;;;15.40;72.72
75617;BME280;64200;55.426;37.758;2023-07-13T20:31:58;98394.66;;;15.29;72.33
75617;BME280;64200;55.426;37.758;2023-07-13T20:36:59;98381.72;;;15.20;72.62
75617;BME280;64200;55.426;37.758;2023-07-13T20:41:59;98390.69;;;15.19;72.47
75617;BME280;64200;55.426;37.758;2023-07-13T20:47:00;98420.94;;;15.32;72.68
75617;BME280;64200;55.426;37.758;2023-07-13T20:52:08;98429.53;;;15.39;73.07
75617;BME280;64200;55.426;37.758;2023-07-13T20:57:11;98416.91;;;15.27;73.18
75617;BME280;64200;55.426;37.758;2023-07-13T21:07:22;98411.06;;;15.25;73.27
75617;BME280;64200;55.426;37.758;2023-07-13T21:12:23;98417.75;;;15.22;73.49
75617;BME280;64200;55.426;37.758;2023-07-13T21:17:24;98416.44;;;15.23;73.54
75617;BME280;64200;55.426;37.758;2023-07-13T21:22:24;98405.03;;;15.15;73.40
75617;BME280;64200;55.426;37.758;2023-07-13T21:27:25;98410.53;;;15.26;73.49
75617;BME280;64200;55.426;37.758;2023-07-13T21:32:25;98402.84;;;15.27;73.64
75617;BME280;64200;55.426;37.758;2023-07-13T21:37:26;98410.28;;;15.24;73.75
75617;BME280;64200;55.426;37.758;2023-07-13T21:42:26;98403.69;;;15.22;73.87
75617;BME280;64200;55.426;37.758;2023-07-13T21:47:27;98396.41;;;15.13;74.10
75617;BME280;64200;55.426;37.758;2023-07-13T21:52:27;98397.09;;;15.19;73.92
75617;BME280;64200;55.426;37.758;2023-07-13T21:57:28;98392.63;;;15.30;73.58
75617;BME280;64200;55.426;37.758;2023-07-13T22:02:29;98404.75;;;15.38;73.49
75617;BME280;64200;55.426;37.758;2023-07-13T22:07:29;98403.69;;;15.41;73.52
75617;BME280;64200;55.426;37.758;2023-07-13T22:12:30;98384.94;;;15.30;73.35
75617;BME280;64200;55.426;37.758;2023-07-13T22:17:31;98382.53;;;15.40;73.22
75617;BME280;64200;55.426;37.758;2023-07-13T22:22:31;98393.16;;;15.47;73.15
75617;BME280;64200;55.426;37.758;2023-07-13T22:27:32;98384.34;;;15.37;73.11
75617;BME280;64200;55.426;37.758;2023-07-13T22:32:33;98394.84;;;15.37;73.43
75617;BME280;64200;55.426;37.758;2023-07-13T22:37:34;98393.53;;;15.38;73.52
75617;BME280;64200;55.426;37.758;2023-07-13T22:42:37;98388.44;;;15.36;73.55
75617;BME280;64200;55.426;37.758;2023-07-13T22:47:39;98389.75;;;15.35;73.67
75617;BME280;64200;55.426;37.758;2023-07-13T22:52:40;98382.44;;;15.26;73.58
75617;BME280;64200;55.426;37.758;2023-07-13T22:57:47;98372.28;;;15.23;73.76
75617;BME280;64200;55.426;37.758;2023-07-13T23:02:49;98378.91;;;15.20;73.90
75617;BME280;64200;55.426;37.758;2023-07-13T23:07:50;98369.22;;;15.21;73.76
75617;BME280;64200;55.426;37.758;2023-07-13T23:12:51;98371.97;;;15.27;73.83
75617;BME280;64200;55.426;37.758;2023-07-13T23:17:51;98375.81;;;15.24;73.99
75617;BME280;64200;55.426;37.758;2023-07-13T23:22:52;98362.59;;;15.19;73.99
75617;BME280;64200;55.426;37.758;2023-07-13T23:27:54;98374.22;;;15.09;73.85
75617;BME280;64200;55.426;37.758;2023-07-13T23:33:24;98363.97;;;15.12;74.25
75617;BME280;64200;55.426;37.758;2023-07-13T23:38:26;98374.16;;;15.15;74.17
75617;BME280;64200;55.426;37.758;2023-07-13T23:43:26;98383.31;;;15.16;74.15
75617;BME280;64200;55.426;37.758;2023-07-13T23:48:27;98378.47;;;15.16;74.15
75617;BME280;64200;55.426;37.758;2023-07-13T23:53:27;98373.94;;;15.13;74.39
75617;BME280;64200;55.426;37.758;2023-07-13T23:58:28;98373.75;;;15.05;74.69
